createdAt,value
2023-08-12T00:00:23.020Z,63.92
2023-08-12T00:02:47.539Z,63.99
2023-08-12T00:04:50.220Z,64.16
2023-08-12T00:06:52.946Z,63.93
2023-08-12T00:08:56.453Z,63.95
2023-08-12T00:10:59.227Z,63.84
2023-08-12T00:13:03.230Z,63.75
2023-08-12T00:15:11.743Z,63.85
2023-08-12T00:17:14.506Z,63.77
2023-08-12T00:19:22.650Z,63.86
2023-08-12T00:21:27.396Z,63.78
2023-08-12T00:23:31.994Z,63.93
2023-08-12T00:25:34.796Z,64.20
2023-08-12T00:27:38.990Z,64.17
2023-08-12T00:29:42.801Z,64.31
2023-08-12T00:31:45.829Z,64.39
2023-08-12T00:33:49.617Z,64.53
2023-08-12T00:35:52.805Z,64.75
2023-08-12T00:37:56.627Z,64.94
2023-08-12T00:39:59.836Z,64.99
2023-08-12T00:42:04.255Z,65.12
2023-08-12T00:44:08.220Z,65.31
2023-08-12T00:46:14.623Z,65.27
2023-08-12T00:48:18.992Z,65.41
2023-08-12T00:50:23.592Z,65.26
2023-08-12T00:52:27.109Z,65.37
2023-08-12T00:54:30.672Z,65.31
2023-08-12T00:56:36.796Z,65.40
2023-08-12T00:58:40.970Z,65.34
2023-08-12T01:00:43.932Z,65.38
2023-08-12T01:02:56.469Z,65.47
2023-08-12T01:05:00.197Z,65.35
2023-08-12T01:07:04.751Z,65.24
2023-08-12T01:09:11.174Z,65.46
2023-08-12T01:11:20.543Z,65.31
2023-08-12T01:14:08.913Z,65.44
2023-08-12T01:16:21.033Z,65.46
2023-08-12T01:18:32.599Z,65.52
2023-08-12T01:20:36.857Z,65.41
2023-08-12T01:22:41.763Z,65.55
2023-08-12T01:24:45.771Z,65.49
2023-08-12T01:26:50.025Z,65.65
2023-08-12T01:28:54.502Z,65.58
2023-08-12T01:31:03.590Z,65.56
2023-08-12T01:33:13.450Z,65.57
2023-08-12T01:35:21.056Z,65.65
2023-08-12T01:37:33.415Z,65.52
2023-08-12T01:39:38.874Z,65.51
2023-08-12T01:41:41.778Z,65.54
2023-08-12T01:43:45.732Z,65.74
2023-08-12T01:45:48.475Z,65.64
2023-08-12T01:47:52.445Z,65.62
2023-08-12T01:50:00.569Z,65.63
2023-08-12T01:52:03.961Z,65.65
2023-08-12T01:54:07.134Z,65.76
2023-08-12T01:56:11.078Z,65.88
2023-08-12T01:58:16.027Z,65.72
2023-08-12T02:00:20.914Z,65.80
2023-08-12T02:02:25.772Z,65.93
2023-08-12T02:04:32.304Z,66.05
2023-08-12T02:06:35.551Z,65.78
2023-08-12T02:08:39.342Z,65.90
2023-08-12T02:10:44.307Z,65.78
2023-08-12T02:12:47.173Z,65.89
2023-08-12T02:14:49.887Z,66.02
2023-08-12T02:16:56.194Z,65.96
2023-08-12T02:18:58.791Z,66.00
2023-08-12T02:21:05.873Z,65.98
2023-08-12T02:23:09.727Z,65.85
2023-08-12T02:25:13.514Z,65.92
2023-08-12T02:27:16.790Z,65.81
2023-08-12T02:29:19.587Z,66.01
2023-08-12T02:31:22.197Z,65.82
2023-08-12T02:33:27.079Z,65.85
2023-08-12T02:35:31.282Z,65.89
2023-08-12T02:37:36.369Z,65.94
2023-08-12T02:39:40.181Z,66.00
2023-08-12T02:41:43.071Z,65.91
2023-08-12T02:43:46.898Z,65.98
2023-08-12T02:45:49.667Z,66.22
2023-08-12T02:47:53.155Z,66.09
2023-08-12T02:49:57.865Z,66.23
2023-08-12T02:52:03.818Z,66.41
2023-08-12T02:54:06.496Z,66.38
2023-08-12T02:56:09.909Z,66.49
2023-08-12T02:58:14.496Z,66.51
2023-08-12T03:00:18.817Z,66.71
2023-08-12T03:02:21.919Z,66.62
2023-08-12T03:04:26.323Z,66.64
2023-08-12T03:06:30.097Z,66.68
2023-08-12T03:08:34.533Z,66.70
2023-08-12T03:10:39.454Z,66.82
2023-08-12T03:12:43.687Z,66.93
2023-08-12T03:14:48.714Z,67.03
2023-08-12T03:16:52.320Z,66.94
2023-08-12T03:18:55.402Z,66.92
2023-08-12T03:20:58.634Z,66.87
2023-08-12T03:23:01.650Z,67.11
2023-08-12T03:25:05.959Z,67.17
2023-08-12T03:27:09.683Z,67.23
2023-08-12T03:29:17.721Z,67.30
2023-08-12T03:31:20.821Z,67.09
2023-08-12T03:33:28.161Z,67.19
2023-08-12T03:35:31.375Z,67.18
2023-08-12T03:37:36.908Z,67.10
2023-08-12T03:39:42.325Z,67.18
2023-08-12T03:41:47.423Z,67.19
2023-08-12T03:43:51.100Z,67.34
2023-08-12T03:45:54.209Z,67.55
2023-08-12T03:47:58.219Z,67.59
2023-08-12T03:50:01.427Z,67.50
2023-08-12T03:52:09.251Z,67.46
2023-08-12T03:54:12.954Z,67.37
2023-08-12T03:56:17.721Z,67.27
2023-08-12T03:58:21.065Z,67.55
2023-08-12T04:00:25.847Z,67.45
2023-08-12T04:02:32.464Z,67.39
2023-08-12T04:04:37.234Z,67.34
2023-08-12T04:06:40.228Z,67.59
2023-08-12T04:08:43.679Z,67.85
2023-08-12T04:10:48.777Z,67.58
2023-08-12T04:12:52.159Z,67.73
2023-08-12T04:14:55.556Z,67.80
2023-08-12T04:16:59.427Z,67.69
2023-08-12T04:19:02.550Z,67.57
2023-08-12T04:21:06.949Z,67.47
2023-08-12T04:23:09.827Z,67.56
2023-08-12T04:25:12.568Z,67.57
2023-08-12T04:27:17.443Z,67.45
2023-08-12T04:29:20.346Z,67.57
2023-08-12T04:31:23.844Z,67.41
2023-08-12T04:33:28.085Z,67.46
2023-08-12T04:35:34.773Z,67.42
2023-08-12T04:37:39.744Z,67.34
2023-08-12T04:39:43.736Z,67.18
2023-08-12T04:41:46.505Z,67.36
2023-08-12T04:43:50.278Z,67.24
2023-08-12T04:45:54.013Z,67.13
2023-08-12T04:47:58.449Z,67.15
2023-08-12T04:50:01.383Z,67.09
2023-08-12T04:52:05.354Z,67.13
2023-08-12T04:54:09.027Z,67.18
2023-08-12T04:56:11.956Z,67.10
2023-08-12T04:58:15.328Z,67.23
2023-08-12T05:00:18.834Z,67.20
2023-08-12T05:02:22.457Z,67.09
2023-08-12T05:04:25.746Z,67.16
2023-08-12T05:06:29.659Z,67.33
2023-08-12T05:08:33.302Z,67.36
2023-08-12T05:10:36.415Z,67.62
2023-08-12T05:12:40.316Z,67.50
2023-08-12T05:14:44.007Z,67.81
2023-08-12T05:16:46.942Z,68.16
2023-08-12T05:18:51.468Z,67.95
2023-08-12T05:20:55.593Z,67.93
2023-08-12T05:22:59.906Z,67.77
2023-08-12T05:25:05.034Z,67.74
2023-08-12T05:27:08.177Z,67.87
2023-08-12T05:29:11.403Z,67.74
2023-08-12T05:31:15.300Z,67.71
2023-08-12T05:33:18.390Z,67.58
2023-08-12T05:35:22.154Z,67.78
2023-08-12T05:37:26.565Z,67.58
2023-08-12T05:39:29.239Z,67.51
2023-08-12T05:41:33.726Z,67.70
2023-08-12T05:43:38.644Z,67.68
2023-08-12T05:45:41.421Z,67.69
2023-08-12T05:47:47.999Z,67.70
2023-08-12T05:49:52.483Z,67.65
2023-08-12T05:51:55.812Z,67.88
2023-08-12T05:54:00.896Z,67.80
2023-08-12T05:56:03.892Z,67.66
2023-08-12T05:58:08.165Z,67.59
2023-08-12T06:00:14.499Z,67.39
2023-08-12T06:02:28.105Z,67.37
2023-08-12T06:04:31.081Z,67.56
2023-08-12T06:06:34.285Z,67.52
2023-08-12T06:08:40.272Z,67.59
2023-08-12T06:10:43.101Z,67.38
2023-08-12T06:12:49.830Z,67.47
2023-08-12T06:14:53.278Z,67.57
2023-08-12T06:16:59.279Z,67.61
2023-08-12T06:19:03.618Z,67.56
2023-08-12T06:21:07.957Z,67.55
2023-08-12T06:23:11.943Z,67.73
2023-08-12T06:25:15.279Z,67.66
2023-08-12T06:27:20.589Z,67.57
2023-08-12T06:29:25.936Z,67.48
2023-08-12T06:31:32.211Z,67.47
2023-08-12T06:33:35.579Z,67.50
2023-08-12T06:35:41.358Z,67.57
2023-08-12T06:37:47.074Z,67.50
2023-08-12T06:39:50.153Z,67.62
2023-08-12T06:41:53.853Z,67.52
2023-08-12T06:43:58.784Z,67.30
2023-08-12T06:46:03.075Z,67.21
2023-08-12T06:48:08.494Z,67.28
2023-08-12T06:50:11.544Z,67.28
2023-08-12T06:52:18.013Z,67.23
2023-08-12T06:54:24.028Z,67.02
2023-08-12T06:56:26.914Z,66.90
2023-08-12T06:58:30.361Z,66.92
2023-08-12T07:00:33.553Z,67.07
2023-08-12T07:02:43.962Z,66.92
2023-08-12T07:04:47.942Z,66.93
2023-08-12T07:06:51.132Z,66.73
2023-08-12T07:08:55.035Z,66.80
2023-08-12T07:10:57.988Z,66.81
2023-08-12T07:13:01.992Z,66.75
2023-08-12T07:15:09.081Z,66.72
2023-08-12T07:17:12.580Z,66.37
2023-08-12T07:19:17.155Z,66.02
2023-08-12T07:21:22.047Z,65.72
2023-08-12T07:23:28.310Z,65.90
2023-08-12T07:25:31.387Z,65.81
2023-08-12T07:27:35.013Z,65.69
2023-08-12T07:29:43.090Z,65.77
2023-08-12T07:31:50.379Z,65.75
2023-08-12T07:33:56.950Z,65.67
2023-08-12T07:36:00.589Z,65.53
2023-08-12T07:38:03.420Z,65.31
2023-08-12T07:40:06.785Z,65.16
2023-08-12T07:42:10.968Z,65.06
2023-08-12T07:44:14.219Z,65.19
2023-08-12T07:46:17.049Z,65.18
2023-08-12T07:48:20.993Z,64.92
2023-08-12T07:50:27.080Z,64.81
2023-08-12T07:52:34.156Z,64.83
2023-08-12T07:54:39.052Z,64.70
2023-08-12T07:56:42.121Z,64.75
2023-08-12T07:58:47.310Z,64.67
2023-08-12T08:00:54.842Z,64.61
2023-08-12T08:02:57.631Z,64.53
2023-08-12T08:05:21.997Z,64.24
2023-08-12T08:07:24.631Z,64.21
2023-08-12T08:09:29.051Z,64.16
2023-08-12T08:11:35.803Z,63.80
2023-08-12T08:13:44.857Z,63.91
2023-08-12T08:15:49.482Z,63.91
2023-08-12T08:17:55.185Z,63.73
2023-08-12T08:19:58.557Z,63.34
2023-08-12T08:22:07.321Z,63.52
2023-08-12T08:24:21.491Z,63.59
2023-08-12T08:26:30.056Z,63.79
2023-08-12T08:28:41.828Z,63.57
2023-08-12T08:31:08.527Z,63.48
2023-08-12T08:33:15.436Z,63.55
2023-08-12T08:35:19.560Z,63.35
2023-08-12T08:37:24.176Z,63.28
2023-08-12T08:39:37.102Z,63.21
2023-08-12T08:41:50.894Z,63.29
2023-08-12T08:43:56.966Z,63.19
2023-08-12T08:46:04.495Z,62.80
2023-08-12T08:48:09.811Z,62.71
2023-08-12T08:50:13.426Z,62.79
2023-08-12T08:52:17.487Z,62.79
2023-08-12T08:54:20.824Z,62.67
2023-08-12T08:56:24.920Z,62.41
2023-08-12T08:58:31.473Z,62.06
2023-08-12T09:00:38.672Z,61.89
2023-08-12T09:02:45.926Z,62.11
2023-08-12T09:04:51.957Z,62.44
2023-08-12T09:06:58.040Z,62.33
2023-08-12T09:09:07.338Z,62.13
2023-08-12T09:11:13.694Z,62.49
2023-08-12T09:13:21.024Z,62.47
2023-08-12T09:15:26.652Z,62.16
2023-08-12T09:17:33.929Z,62.56
2023-08-12T09:19:38.935Z,62.55
2023-08-12T09:21:44.944Z,62.43
2023-08-12T09:23:48.793Z,62.42
2023-08-12T09:25:56.936Z,62.42
2023-08-12T09:28:04.761Z,62.44
2023-08-12T09:30:11.514Z,61.78
2023-08-12T09:32:20.138Z,61.64
2023-08-12T09:34:25.472Z,61.50
2023-08-12T09:36:34.133Z,61.52
2023-08-12T09:38:42.867Z,61.80
2023-08-12T09:40:55.701Z,61.33
2023-08-12T09:43:02.022Z,61.29
2023-08-12T09:45:06.422Z,61.06
2023-08-12T09:47:11.640Z,61.12
2023-08-12T09:49:22.718Z,60.89
2023-08-12T09:51:27.626Z,60.86
2023-08-12T09:53:31.764Z,61.08
2023-08-12T09:55:37.600Z,60.99
2023-08-12T09:57:43.931Z,60.89
2023-08-12T09:59:50.643Z,61.15
2023-08-12T10:01:57.487Z,60.49
2023-08-12T10:04:07.845Z,60.43
2023-08-12T10:06:16.878Z,60.49
2023-08-12T10:08:21.061Z,60.52
2023-08-12T10:10:27.940Z,60.19
2023-08-12T10:12:40.900Z,60.11
2023-08-12T10:14:48.871Z,60.14
2023-08-12T10:17:04.388Z,60.22
2023-08-12T10:19:15.073Z,60.31
2023-08-12T10:21:22.818Z,60.12
2023-08-12T10:23:33.595Z,60.31
2023-08-12T10:25:39.500Z,60.39
2023-08-12T10:27:43.540Z,60.35
2023-08-12T10:29:50.784Z,60.21
2023-08-12T10:31:54.540Z,59.95
2023-08-12T10:34:03.052Z,59.55
2023-08-12T10:38:34.050Z,59.93
2023-08-12T10:40:38.627Z,60.01
2023-08-12T10:42:46.270Z,60.01
2023-08-12T10:45:02.314Z,59.38
2023-08-12T10:47:11.948Z,58.89
2023-08-12T10:49:16.380Z,58.42
2023-08-12T10:51:20.062Z,57.70
2023-08-12T10:53:32.932Z,57.81
2023-08-12T10:55:42.217Z,57.53
2023-08-12T10:58:02.865Z,57.06
2023-08-12T11:00:25.692Z,56.95
2023-08-12T11:02:36.838Z,57.50
2023-08-12T11:04:44.427Z,57.86
2023-08-12T11:06:48.662Z,57.68
2023-08-12T11:08:57.872Z,57.72
2023-08-12T11:11:03.264Z,57.77
2023-08-12T11:13:06.271Z,57.61
2023-08-12T11:15:12.008Z,57.00
2023-08-12T11:17:18.765Z,57.38
2023-08-12T11:19:27.047Z,57.18
2023-08-12T11:21:42.405Z,57.17
2023-08-12T11:23:51.055Z,56.43
2023-08-12T11:26:02.106Z,56.54
2023-08-12T11:28:16.096Z,56.77
2023-08-12T11:30:21.528Z,56.45
2023-08-12T11:32:25.010Z,56.63
2023-08-12T11:34:30.764Z,56.83
2023-08-12T11:36:34.866Z,56.23
2023-08-12T11:38:54.891Z,56.22
2023-08-12T11:41:06.021Z,56.75
2023-08-12T11:43:11.279Z,56.89
2023-08-12T11:45:26.103Z,56.73
2023-08-12T11:47:30.808Z,56.17
2023-08-12T11:49:33.944Z,55.67
2023-08-12T11:51:59.604Z,56.53
2023-08-12T11:54:06.570Z,56.51
2023-08-12T11:56:17.881Z,56.18
2023-08-12T11:58:52.591Z,55.53
2023-08-12T12:01:03.227Z,55.24
2023-08-12T12:03:09.051Z,55.72
2023-08-12T12:05:15.500Z,55.59
2023-08-12T12:07:25.422Z,55.79
2023-08-12T12:09:42.673Z,55.90
2023-08-12T12:11:49.378Z,55.87
2023-08-12T12:13:55.246Z,55.61
2023-08-12T12:16:00.053Z,55.22
2023-08-12T12:18:11.990Z,54.88
2023-08-12T12:20:15.872Z,54.85
2023-08-12T12:22:20.669Z,54.67
2023-08-12T12:24:36.324Z,54.79
2023-08-12T12:26:43.328Z,55.28
2023-08-12T12:28:47.895Z,55.41
2023-08-12T12:30:51.157Z,55.76
2023-08-12T12:32:55.209Z,55.57
2023-08-12T12:35:01.433Z,55.11
2023-08-12T12:37:04.554Z,54.35
2023-08-12T12:39:09.211Z,54.16
2023-08-12T12:41:12.366Z,54.03
2023-08-12T12:43:16.945Z,53.71
2023-08-12T12:45:20.028Z,52.90
2023-08-12T12:47:32.653Z,52.77
2023-08-12T12:49:42.508Z,52.82
2023-08-12T12:51:46.355Z,53.29
2023-08-12T12:53:49.643Z,52.68
2023-08-12T12:55:53.564Z,52.49
2023-08-12T12:57:58.482Z,52.53
2023-08-12T13:00:06.951Z,52.60
2023-08-12T13:02:11.866Z,52.59
2023-08-12T13:04:17.322Z,52.62
2023-08-12T13:06:32.876Z,52.47
2023-08-12T13:08:37.822Z,52.35
2023-08-12T13:10:43.733Z,52.10
2023-08-12T13:12:54.146Z,52.28
2023-08-12T13:15:00.303Z,52.18
2023-08-12T13:17:08.150Z,53.00
2023-08-12T13:19:11.943Z,54.42
2023-08-12T13:21:17.519Z,55.14
2023-08-12T13:23:22.194Z,55.92
2023-08-12T13:25:26.039Z,56.49
2023-08-12T13:27:29.412Z,55.90
2023-08-12T13:29:33.637Z,54.89
2023-08-12T13:31:36.730Z,55.36
2023-08-12T13:33:40.568Z,55.24
2023-08-12T13:35:44.509Z,55.78
2023-08-12T13:37:50.412Z,57.05
2023-08-12T13:39:53.842Z,58.99
2023-08-12T13:41:59.129Z,60.84
2023-08-12T13:44:03.472Z,62.98
2023-08-12T13:46:43.305Z,63.70
2023-08-12T13:48:48.771Z,64.74
2023-08-12T13:50:55.049Z,65.17
2023-08-12T13:53:00.870Z,65.36
2023-08-12T13:55:16.270Z,65.68
2023-08-12T13:57:22.018Z,66.07
2023-08-12T13:59:25.014Z,66.59
2023-08-12T14:01:29.115Z,66.77
2023-08-12T14:03:35.166Z,67.38
2023-08-12T14:05:55.558Z,67.61
2023-08-12T14:08:01.592Z,67.89
2023-08-12T14:10:07.162Z,67.84
2023-08-12T14:12:15.665Z,67.90
2023-08-12T14:14:28.796Z,67.36
2023-08-12T14:16:59.373Z,67.65
2023-08-12T14:19:18.935Z,68.15
2023-08-12T14:21:25.470Z,68.02
2023-08-12T14:23:32.649Z,68.05
2023-08-12T14:25:37.971Z,68.38
2023-08-12T14:27:46.852Z,68.36
2023-08-12T14:29:51.790Z,68.45
2023-08-12T14:31:54.845Z,68.56
2023-08-12T14:33:57.768Z,68.50
2023-08-12T14:36:04.374Z,68.89
2023-08-12T14:38:43.513Z,69.32
2023-08-12T14:40:49.811Z,69.17
2023-08-12T14:42:56.629Z,69.44
2023-08-12T14:45:08.203Z,69.59
2023-08-12T14:47:12.599Z,69.72
2023-08-12T14:49:19.588Z,68.98
2023-08-12T14:51:24.502Z,68.25
2023-08-12T14:54:06.766Z,68.84
2023-08-12T14:56:14.563Z,68.70
2023-08-12T14:58:20.477Z,68.85
2023-08-12T15:00:28.140Z,68.84
2023-08-12T15:02:42.292Z,69.23
2023-08-12T15:05:03.792Z,68.92
2023-08-12T15:07:11.360Z,69.13
2023-08-12T15:09:26.869Z,69.16
2023-08-12T15:11:31.554Z,69.34
2023-08-12T15:13:37.946Z,69.50
2023-08-12T15:15:43.345Z,69.04
2023-08-12T15:17:46.420Z,68.66
2023-08-12T15:19:53.057Z,68.39
2023-08-12T15:21:57.609Z,68.38
2023-08-12T15:24:08.359Z,68.40
2023-08-12T15:26:29.343Z,68.31
2023-08-12T15:28:42.745Z,68.49
2023-08-12T15:30:56.848Z,68.67
2023-08-12T15:33:25.957Z,68.69
2023-08-12T15:35:30.313Z,68.96
2023-08-12T15:37:37.133Z,69.32
2023-08-12T15:39:42.823Z,69.59
2023-08-12T15:41:50.694Z,69.95
2023-08-12T15:43:55.038Z,69.54
2023-08-12T15:45:58.489Z,69.33
2023-08-12T15:48:04.041Z,69.54
2023-08-12T15:52:58.965Z,68.95
2023-08-12T15:55:04.292Z,68.80
2023-08-12T15:57:12.002Z,68.75
2023-08-12T15:59:23.445Z,68.72
2023-08-12T16:01:38.658Z,68.89
2023-08-12T16:03:45.812Z,68.65
2023-08-12T16:05:59.004Z,68.66
2023-08-12T16:08:12.665Z,68.43
2023-08-12T16:10:16.949Z,68.47
2023-08-12T16:12:34.207Z,68.75
2023-08-12T16:14:41.974Z,68.52
2023-08-12T16:16:47.003Z,69.14
2023-08-12T16:18:53.325Z,68.89
2023-08-12T16:21:00.630Z,68.80
2023-08-12T16:23:05.356Z,68.32
2023-08-12T16:25:11.103Z,67.70
2023-08-12T16:27:15.959Z,66.74
2023-08-12T16:29:21.307Z,66.00
2023-08-12T16:33:57.324Z,65.74
2023-08-12T16:36:03.897Z,65.09
2023-08-12T16:38:20.121Z,64.17
2023-08-12T16:40:30.095Z,63.35
2023-08-12T16:42:55.384Z,63.28
2023-08-12T16:45:07.773Z,62.21
2023-08-12T16:47:32.596Z,62.12
2023-08-12T16:49:50.952Z,61.93
2023-08-12T16:52:07.536Z,62.39
2023-08-12T16:54:28.111Z,63.18
2023-08-12T16:56:32.826Z,63.55
2023-08-12T16:58:45.811Z,63.61
2023-08-12T17:00:51.018Z,63.86
2023-08-12T17:03:03.221Z,63.97
2023-08-12T17:05:29.639Z,64.21
2023-08-12T17:07:34.092Z,64.60
2023-08-12T17:09:42.678Z,64.99
2023-08-12T17:11:47.735Z,65.42
2023-08-12T17:13:53.419Z,65.54
2023-08-12T17:15:58.628Z,65.61
2023-08-12T17:18:05.704Z,65.95
2023-08-12T17:20:13.093Z,66.10
2023-08-12T17:22:17.232Z,66.20
2023-08-12T17:24:21.437Z,66.53
2023-08-12T17:26:54.967Z,66.52
2023-08-12T17:28:59.140Z,66.67
2023-08-12T17:31:07.401Z,66.72
2023-08-12T17:33:27.448Z,67.11
2023-08-12T17:36:23.338Z,66.99
2023-08-12T17:38:28.561Z,67.32
2023-08-12T17:40:33.108Z,67.46
2023-08-12T17:42:41.164Z,67.53
2023-08-12T17:44:45.941Z,67.84
2023-08-12T17:46:50.517Z,67.81
2023-08-12T17:48:58.078Z,67.79
2023-08-12T17:51:35.262Z,67.99
2023-08-12T17:53:48.101Z,68.30
2023-08-12T17:55:51.794Z,68.28
2023-08-12T17:58:00.593Z,68.21
2023-08-12T18:00:09.075Z,68.50
2023-08-12T18:02:21.384Z,68.49
2023-08-12T18:04:36.570Z,68.57
2023-08-12T18:06:48.438Z,68.73
2023-08-12T18:08:55.455Z,68.76
2023-08-12T18:11:05.135Z,68.76
2023-08-12T18:13:08.404Z,68.98
2023-08-12T18:15:14.273Z,69.02
2023-08-12T18:17:34.437Z,69.10
2023-08-12T18:19:40.844Z,68.99
2023-08-12T18:21:44.188Z,69.29
2023-08-12T18:23:50.156Z,69.04
2023-08-12T18:25:54.935Z,69.31
2023-08-12T18:27:58.547Z,69.36
2023-08-12T18:30:12.155Z,69.48
2023-08-12T18:34:42.031Z,69.63
2023-08-12T18:36:52.550Z,69.60
2023-08-12T18:38:58.369Z,69.72
2023-08-12T18:41:01.428Z,69.95
2023-08-12T18:43:07.053Z,69.83
2023-08-12T18:45:12.570Z,69.85
2023-08-12T18:47:17.861Z,69.82
2023-08-12T18:52:00.729Z,69.96
2023-08-12T18:54:05.888Z,69.88
2023-08-12T18:56:10.931Z,69.81
2023-08-12T18:58:14.853Z,69.84
2023-08-12T19:00:20.424Z,70.00
2023-08-12T19:02:24.506Z,70.01
2023-08-12T19:04:27.955Z,69.91
2023-08-12T19:06:34.749Z,70.11
2023-08-12T19:08:41.347Z,70.00
2023-08-12T19:10:54.700Z,70.16
2023-08-12T19:13:00.225Z,69.90
2023-08-12T19:15:13.290Z,70.02
2023-08-12T19:17:20.373Z,70.13
2023-08-12T19:19:27.335Z,70.19
2023-08-12T19:21:33.785Z,70.02
2023-08-12T19:23:58.706Z,70.12
2023-08-12T19:26:05.649Z,70.30
2023-08-12T19:28:09.712Z,70.28
2023-08-12T19:30:20.838Z,70.27
2023-08-12T19:32:28.352Z,70.28
2023-08-12T19:37:02.546Z,70.44
2023-08-12T19:39:20.965Z,70.37
2023-08-12T19:41:24.567Z,70.50
2023-08-12T19:43:32.920Z,70.56
2023-08-12T19:45:36.250Z,70.52
2023-08-12T19:47:41.663Z,70.57
2023-08-12T19:49:44.742Z,70.72
2023-08-12T19:51:47.520Z,70.83
2023-08-12T19:53:56.442Z,70.75
2023-08-12T19:56:25.347Z,70.79
2023-08-12T19:58:46.086Z,70.85
2023-08-12T20:00:51.006Z,70.85
2023-08-12T20:02:58.389Z,70.93
2023-08-12T20:05:02.479Z,70.92
2023-08-12T20:07:08.907Z,70.97
2023-08-12T20:09:15.081Z,71.14
2023-08-12T20:11:37.869Z,71.01
2023-08-12T20:13:51.060Z,71.06
2023-08-12T20:16:01.144Z,71.37
2023-08-12T20:18:18.007Z,71.46
2023-08-12T20:20:21.836Z,71.59
2023-08-12T20:22:27.773Z,71.73
2023-08-12T20:24:36.575Z,71.82
2023-08-12T20:26:42.269Z,71.84
2023-08-12T20:28:47.835Z,71.85
2023-08-12T20:30:52.637Z,71.95
2023-08-12T20:32:57.219Z,71.88
2023-08-12T20:35:03.844Z,71.99
2023-08-12T20:37:08.462Z,71.97
2023-08-12T20:39:14.783Z,72.04
2023-08-12T20:41:28.042Z,72.07
2023-08-12T20:43:41.489Z,71.82
2023-08-12T20:45:45.213Z,71.93
2023-08-12T20:47:50.675Z,71.89
2023-08-12T20:49:58.355Z,71.99
2023-08-12T20:52:03.636Z,71.94
2023-08-12T20:54:13.434Z,72.01
2023-08-12T20:56:51.668Z,71.88
2023-08-12T20:58:55.950Z,71.93
2023-08-12T21:01:04.131Z,71.98
2023-08-12T21:03:13.518Z,72.02
2023-08-12T21:05:22.575Z,71.93
2023-08-12T21:07:27.915Z,72.07
2023-08-12T21:09:37.750Z,72.23
2023-08-12T21:11:51.763Z,72.27
2023-08-12T21:13:58.686Z,72.24
2023-08-12T21:16:02.604Z,72.26
2023-08-12T21:18:23.161Z,72.44
2023-08-12T21:20:27.492Z,72.50
2023-08-12T21:22:30.843Z,72.40
2023-08-12T21:24:56.409Z,72.41
2023-08-12T21:27:01.253Z,72.53
2023-08-12T21:29:08.523Z,72.33
2023-08-12T21:31:13.884Z,72.32
2023-08-12T21:33:18.136Z,72.43
2023-08-12T21:35:24.336Z,72.36
2023-08-12T21:37:30.740Z,72.41
2023-08-12T21:39:53.770Z,72.42
2023-08-12T21:42:00.918Z,72.35
2023-08-12T21:44:07.341Z,72.54
2023-08-12T21:46:15.761Z,72.53
2023-08-12T21:48:21.555Z,72.61
2023-08-12T21:50:30.482Z,72.68
2023-08-12T21:52:37.563Z,72.71
2023-08-12T21:54:49.686Z,72.81
2023-08-12T21:56:56.304Z,72.92
2023-08-12T21:59:01.803Z,72.87
2023-08-12T22:01:06.445Z,72.99
2023-08-12T22:03:12.453Z,73.18
2023-08-12T22:05:15.957Z,72.98
2023-08-12T22:07:22.305Z,72.88
2023-08-12T22:09:29.468Z,72.92
2023-08-12T22:11:38.355Z,73.24
2023-08-12T22:13:50.520Z,73.19
2023-08-12T22:15:55.172Z,73.18
2023-08-12T22:17:58.329Z,73.27
2023-08-12T22:20:06.444Z,73.37
2023-08-12T22:22:23.340Z,73.39
2023-08-12T22:24:29.535Z,73.30
2023-08-12T22:26:32.400Z,73.59
2023-08-12T22:28:37.799Z,73.82
2023-08-12T22:30:44.885Z,73.64
2023-08-12T22:32:49.677Z,73.73
2023-08-12T22:34:56.493Z,73.96
2023-08-12T22:37:03.106Z,74.02
2023-08-12T22:39:11.044Z,74.21
2023-08-12T22:41:16.345Z,73.89
2023-08-12T22:43:22.782Z,74.13
2023-08-12T22:45:29.339Z,74.09
2023-08-12T22:47:43.366Z,74.00
2023-08-12T22:49:46.996Z,73.97
2023-08-12T22:51:58.491Z,74.04
2023-08-12T22:54:08.329Z,74.05
2023-08-12T22:56:18.083Z,73.94
2023-08-12T22:58:24.948Z,73.99
2023-08-12T23:00:29.642Z,74.22
2023-08-12T23:02:35.135Z,74.03
2023-08-12T23:04:38.459Z,74.14
2023-08-12T23:06:50.712Z,74.23
2023-08-12T23:08:55.614Z,74.26
2023-08-12T23:10:59.814Z,74.00
2023-08-12T23:13:05.849Z,73.95
2023-08-12T23:15:32.874Z,73.88
2023-08-12T23:17:36.507Z,73.91
2023-08-12T23:19:40.509Z,73.78
2023-08-12T23:21:48.522Z,74.01
2023-08-12T23:23:53.947Z,73.74
2023-08-12T23:26:01.542Z,73.75
2023-08-12T23:28:05.126Z,73.92
2023-08-12T23:30:33.890Z,73.72
2023-08-12T23:32:44.196Z,73.95
2023-08-12T23:34:49.841Z,73.95
2023-08-12T23:36:53.106Z,73.86
2023-08-12T23:38:57.240Z,73.62
2023-08-12T23:41:03.206Z,73.64
2023-08-12T23:43:08.877Z,73.53
2023-08-12T23:45:16.228Z,73.60
2023-08-12T23:47:20.296Z,73.66
2023-08-12T23:49:31.711Z,73.61
2023-08-12T23:51:42.114Z,73.87
2023-08-12T23:53:52.123Z,73.95
2023-08-12T23:55:57.554Z,74.00
2023-08-12T23:58:10.448Z,74.04
